Time;durP1;ratioP1;P1;durP2;ratioP2;P2;SDS_P1;SDS_P2;PMS_P1;PMS_P2;Temp;Humidity;BMP_temperature;BMP_pressure;BME280_temperature;BME280_humidity;BME280_pressure;Samples;Min_cycle;Max_cycle;Signal;HPM_P1;HPM_P2
2023/04/22 00:01:57;;;;;;;16.17;7.93;;;;;;;8.99;57.95;100183.78;4223845;28;20303;-70
2023/04/22 00:04:23;;;;;;;22.77;7.37;;;;;;;9.00;57.83;100183.66;4226111;28;20236;-70
2023/04/22 00:06:50;;;;;;;19.07;7.27;;;;;;;9.10;57.57;100185.50;4227468;28;20650;-70
2023/04/22 00:09:17;;;;;;;16.00;7.60;;;;;;;9.10;57.59;100189.03;4206435;28;20233;-67
2023/04/22 00:11:43;;;;;;;18.97;7.97;;;;;;;8.79;59.28;100177.56;4226808;28;21860;-70
2023/04/22 00:14:10;;;;;;;18.30;8.43;;;;;;;8.69;59.93;100177.56;4231686;28;21245;-68
2023/04/22 00:16:37;;;;;;;21.30;8.13;;;;;;;8.70;59.52;100180.09;4212077;28;20291;-69
2023/04/22 00:19:04;;;;;;;22.43;8.30;;;;;;;8.73;59.47;100178.97;4223164;28;20255;-69
2023/04/22 00:21:31;;;;;;;20.33;7.67;;;;;;;8.63;59.76;100178.13;4222515;28;20231;-70
2023/04/22 00:23:58;;;;;;;17.97;6.53;;;;;;;8.67;59.74;100168.75;4227119;28;20459;-66
2023/04/22 00:26:24;;;;;;;12.37;6.70;;;;;;;8.72;59.39;100175.44;4224840;28;20233;-66
2023/04/22 00:28:51;;;;;;;15.80;7.60;;;;;;;8.65;59.98;100178.81;4208756;28;20231;-70
2023/04/22 00:31:17;;;;;;;19.07;8.23;;;;;;;8.57;60.26;100174.97;4232262;28;20241;-68
2023/04/22 00:33:44;;;;;;;19.50;8.03;;;;;;;8.50;60.55;100173.00;4230171;28;20235;-67
2023/04/22 00:36:10;;;;;;;19.73;7.40;;;;;;;8.38;61.30;100167.69;4224673;28;21056;-67
2023/04/22 00:38:37;;;;;;;13.40;6.93;;;;;;;8.34;61.46;100163.56;4232878;28;20262;-68
2023/04/22 00:41:04;;;;;;;15.37;7.40;;;;;;;8.31;61.40;100171.09;4217805;28;21103;-67
2023/04/22 00:43:31;;;;;;;20.00;7.50;;;;;;;8.32;61.33;100170.94;4230682;28;20231;-67
2023/04/22 00:45:57;;;;;;;18.77;7.40;;;;;;;8.26;61.51;100163.41;4221566;28;21058;-68
2023/04/22 00:48:24;;;;;;;15.47;6.90;;;;;;;8.31;61.64;100163.00;4219074;28;20282;-69
2023/04/22 00:50:54;;;;;;;17.37;7.23;;;;;;;8.31;61.62;100168.41;4225740;28;20243;-68
2023/04/22 00:53:20;;;;;;;17.63;6.67;;;;;;;8.31;61.37;100165.69;4213316;28;20302;-67
2023/04/22 00:55:47;;;;;;;17.07;6.67;;;;;;;8.32;61.43;100173.63;4221690;28;21534;-67
2023/04/22 00:58:14;;;;;;;16.90;7.03;;;;;;;8.28;61.59;100163.28;4227271;28;21521;-67
2023/04/22 01:00:40;;;;;;;16.30;7.07;;;;;;;8.33;61.14;100161.88;4211564;28;20255;-68
2023/04/22 01:03:07;;;;;;;15.77;7.03;;;;;;;8.36;61.20;100158.03;4228098;28;20286;-66
2023/04/22 01:05:34;;;;;;;20.40;7.37;;;;;;;8.43;60.79;100158.34;4211362;28;20246;-67
2023/04/22 01:08:01;;;;;;;15.33;6.47;;;;;;;8.52;60.23;100155.66;4222604;28;22001;-69
2023/04/22 01:10:28;;;;;;;18.33;6.33;;;;;;;8.53;60.29;100156.53;4226843;28;21592;-69
2023/04/22 01:12:54;;;;;;;22.33;7.27;;;;;;;8.57;60.04;100164.19;4223792;28;20414;-67
2023/04/22 01:15:21;;;;;;;14.13;6.57;;;;;;;8.54;60.25;100158.22;4225394;28;20300;-67
2023/04/22 01:17:47;;;;;;;16.77;6.40;;;;;;;8.42;60.45;100152.09;4230247;28;20417;-70
2023/04/22 01:20:14;;;;;;;12.70;5.90;;;;;;;8.43;60.60;100161.88;4228179;28;21836;-66
2023/04/22 01:22:43;;;;;;;13.93;7.07;;;;;;;8.36;61.13;100163.44;4226480;28;20436;-68
2023/04/22 01:25:10;;;;;;;15.50;5.97;;;;;;;8.30;61.14;100159.47;4224321;28;20240;-68
2023/04/22 01:27:37;;;;;;;16.33;6.10;;;;;;;8.28;60.95;100161.44;4216678;28;20247;-66
2023/04/22 01:30:05;;;;;;;13.00;6.33;;;;;;;8.28;61.29;100164.13;4224928;28;20305;-68
2023/04/22 01:32:32;;;;;;;14.37;6.43;;;;;;;8.24;61.77;100162.69;4227536;28;20233;-66
2023/04/22 01:34:58;;;;;;;15.37;6.40;;;;;;;8.14;62.08;100156.44;4226193;28;21550;-68
2023/04/22 01:37:25;;;;;;;12.27;6.03;;;;;;;8.02;62.39;100161.94;4229648;28;20266;-69
2023/04/22 01:39:52;;;;;;;14.83;6.80;;;;;;;7.98;62.81;100160.53;4224775;28;21294;-69
2023/04/22 01:42:18;;;;;;;14.93;6.13;;;;;;;7.93;62.72;100166.31;4217778;28;20300;-67
2023/04/22 01:44:45;;;;;;;14.77;6.63;;;;;;;7.89;63.12;100162.19;4218717;28;20239;-66
2023/04/22 01:47:12;;;;;;;20.87;6.03;;;;;;;7.86;63.46;100159.78;4232640;28;20250;-72
2023/04/22 01:49:38;;;;;;;14.07;6.80;;;;;;;7.82;62.92;100155.63;4227040;28;20241;-67
2023/04/22 01:52:05;;;;;;;10.97;5.53;;;;;;;7.85;63.03;100154.53;4228775;28;20237;-67
2023/04/22 01:54:32;;;;;;;11.57;5.70;;;;;;;7.81;63.48;100163.88;4222660;28;20354;-68
2023/04/22 01:56:59;;;;;;;13.50;5.87;;;;;;;7.78;63.41;100162.31;4197660;28;22062;-66
2023/04/22 01:59:26;;;;;;;15.30;6.30;;;;;;;7.81;63.22;100148.56;4211263;28;24094;-67
2023/04/22 02:01:52;;;;;;;11.50;5.90;;;;;;;7.84;63.08;100155.53;4231014;28;23002;-66
2023/04/22 02:04:19;;;;;;;11.87;6.60;;;;;;;7.78;63.25;100152.34;4200860;28;20300;-68
2023/04/22 02:06:45;;;;;;;14.90;6.17;;;;;;;7.75;63.25;100154.47;4224624;28;20236;-68
2023/04/22 02:09:12;;;;;;;11.17;5.87;;;;;;;7.69;64.08;100153.19;4222431;28;20238;-69
2023/04/22 02:11:38;;;;;;;20.50;6.83;;;;;;;7.58;64.24;100148.75;4229850;28;21028;-66
2023/04/22 02:14:05;;;;;;;16.10;6.23;;;;;;;7.55;64.12;100149.03;4214426;28;20291;-69
2023/04/22 02:16:31;;;;;;;17.37;6.27;;;;;;;7.55;64.55;100150.88;4228784;28;22355;-68
2023/04/22 02:18:59;;;;;;;15.20;6.53;;;;;;;7.44;65.18;100143.72;4224510;28;20228;-67
2023/04/22 02:21:28;;;;;;;16.07;6.60;;;;;;;7.36;65.07;100147.09;4229151;28;20298;-68
2023/04/22 02:23:54;;;;;;;12.87;6.30;;;;;;;7.29;65.41;100144.06;4218830;28;20362;-68
2023/04/22 02:26:22;;;;;;;13.87;6.10;;;;;;;7.26;65.65;100152.44;4225616;28;21815;-67
2023/04/22 02:28:49;;;;;;;12.90;5.90;;;;;;;7.22;65.49;100137.50;4228590;28;20564;-67
2023/04/22 02:31:15;;;;;;;14.10;6.63;;;;;;;7.32;65.37;100148.34;4221928;28;20408;-71
2023/04/22 02:33:42;;;;;;;15.43;5.97;;;;;;;7.43;64.98;100142.88;4219481;28;21215;-68
2023/04/22 02:36:08;;;;;;;13.23;6.27;;;;;;;7.46;64.80;100141.75;4229655;28;20290;-66
2023/04/22 02:38:35;;;;;;;14.90;6.13;;;;;;;7.46;64.87;100139.03;4225054;28;21695;-69
2023/04/22 02:41:02;;;;;;;12.00;5.93;;;;;;;7.42;64.86;100141.16;4217271;28;23265;-68
2023/04/22 02:43:28;;;;;;;11.97;5.77;;;;;;;7.39;65.38;100145.97;4222437;28;21229;-72
2023/04/22 02:45:55;;;;;;;13.47;5.90;;;;;;;7.34;65.46;100140.13;4225274;28;22278;-70
2023/04/22 02:48:21;;;;;;;12.60;6.33;;;;;;;7.28;65.78;100138.81;4227370;28;21110;-69
2023/04/22 02:50:48;;;;;;;16.20;6.50;;;;;;;7.26;65.60;100133.56;4222468;28;20242;-68
2023/04/22 02:53:14;;;;;;;12.83;5.97;;;;;;;7.25;65.66;100131.88;4226129;28;20236;-68
2023/04/22 02:55:41;;;;;;;15.03;6.00;;;;;;;7.19;66.36;100137.78;4223403;28;20239;-69
2023/04/22 02:58:07;;;;;;;17.60;5.93;;;;;;;7.13;66.02;100141.84;4223365;28;20626;-70
2023/04/22 03:00:35;;;;;;;15.47;5.87;;;;;;;7.17;65.70;100142.44;4224737;28;20430;-69
2023/04/22 03:03:01;;;;;;;11.40;5.57;;;;;;;7.13;65.82;100138.31;4224801;28;22200;-68
2023/04/22 03:05:28;;;;;;;15.07;5.67;;;;;;;7.09;65.92;100135.03;4225545;28;20408;-69
2023/04/22 03:07:55;;;;;;;13.93;5.87;;;;;;;7.06;66.11;100138.00;4226756;28;21736;-68
2023/04/22 03:10:21;;;;;;;13.13;6.13;;;;;;;7.07;66.25;100141.53;4223945;28;20240;-68
2023/04/22 03:12:48;;;;;;;15.90;6.17;;;;;;;6.98;67.00;100151.25;4225305;28;20235;-70
2023/04/22 03:15:14;;;;;;;16.07;5.90;;;;;;;6.96;67.28;100151.38;4230689;28;20645;-68
2023/04/22 03:17:44;;;;;;;17.70;7.30;;;;;;;6.89;67.88;100152.91;4229172;28;20588;-69
2023/04/22 03:20:11;;;;;;;23.10;7.17;;;;;;;6.84;68.64;100149.72;4230327;28;20235;-69
2023/04/22 03:22:38;;;;;;;16.60;7.27;;;;;;;6.83;68.58;100156.13;4224922;28;22917;-69
2023/04/22 03:25:05;;;;;;;16.20;7.40;;;;;;;6.75;69.19;100150.53;4225793;28;20247;-69
2023/04/22 03:27:32;;;;;;;16.97;7.03;;;;;;;6.70;69.60;100158.13;4228120;28;20231;-68
2023/04/22 03:29:58;;;;;;;26.47;7.53;;;;;;;6.66;70.09;100153.00;4219860;28;20592;-68
2023/04/22 03:32:25;;;;;;;21.80;6.57;;;;;;;6.63;69.97;100157.78;4227162;28;20227;-69
2023/04/22 03:34:52;;;;;;;20.83;7.47;;;;;;;6.65;70.00;100158.50;4222441;28;20305;-66
2023/04/22 03:37:18;;;;;;;27.83;7.77;;;;;;;6.56;70.08;100160.13;4228875;28;20257;-67
2023/04/22 03:39:45;;;;;;;18.63;7.47;;;;;;;6.54;70.33;100164.78;4226201;28;21707;-67
2023/04/22 03:42:13;;;;;;;18.73;7.87;;;;;;;6.56;70.33;100168.19;4238619;28;20245;-67
2023/04/22 03:44:39;;;;;;;24.33;8.17;;;;;;;6.63;70.19;100168.56;4238825;28;21216;-68
2023/04/22 03:47:06;;;;;;;19.63;7.03;;;;;;;6.63;69.91;100171.25;4233476;28;21400;-68
2023/04/22 03:49:33;;;;;;;19.47;6.27;;;;;;;6.62;69.25;100169.53;4244567;28;20240;-70
2023/04/22 03:52:00;;;;;;;14.30;6.00;;;;;;;6.60;69.48;100164.28;4248822;28;20277;-69
2023/04/22 03:54:26;;;;;;;18.90;7.13;;;;;;;6.68;69.54;100168.16;4244256;28;22091;-69
2023/04/22 03:56:53;;;;;;;18.33;7.10;;;;;;;6.75;69.27;100167.50;4242045;28;20638;-68
2023/04/22 03:59:20;;;;;;;16.40;7.03;;;;;;;6.88;69.26;100167.34;4246300;28;21085;-68
2023/04/22 04:01:47;;;;;;;25.30;7.53;;;;;;;6.85;68.94;100167.59;4246123;28;20223;-68
2023/04/22 04:04:13;;;;;;;24.30;7.17;;;;;;;6.85;69.02;100170.28;4227489;28;22201;-68
2023/04/22 04:06:40;;;;;;;25.87;7.77;;;;;;;6.90;69.47;100165.38;4257826;28;20242;-70
2023/04/22 04:09:07;;;;;;;15.53;6.80;;;;;;;6.98;69.23;100170.97;4242780;28;22536;-68
2023/04/22 04:11:34;;;;;;;13.33;6.23;;;;;;;7.04;68.45;100180.31;4222858;28;20312;-69
2023/04/22 04:14:02;;;;;;;15.53;7.50;;;;;;;7.07;68.62;100177.38;4227115;28;22515;-71
2023/04/22 04:16:29;;;;;;;19.33;7.23;;;;;;;7.16;68.52;100177.59;4235181;28;20262;-67
2023/04/22 04:18:55;;;;;;;21.10;7.23;;;;;;;7.14;68.49;100181.25;4224886;28;21780;-69
2023/04/22 04:21:22;;;;;;;20.60;7.07;;;;;;;7.18;68.55;100181.84;4227231;28;22144;-66
2023/04/22 04:23:49;;;;;;;19.13;6.53;;;;;;;7.24;68.56;100186.69;4228841;28;20413;-68
2023/04/22 04:26:16;;;;;;;11.87;5.63;;;;;;;7.28;65.38;100169.31;4250081;28;20845;-67
2023/04/22 04:28:43;;;;;;;16.03;6.17;;;;;;;7.41;64.61;100179.00;4222820;28;20239;-67
2023/04/22 04:31:10;;;;;;;12.37;4.97;;;;;;;7.53;64.00;100182.47;4210587;28;21478;-70
2023/04/22 04:33:38;;;;;;;19.20;5.83;;;;;;;7.65;63.67;100177.84;4229382;28;20656;-70
2023/04/22 04:36:05;;;;;;;15.67;5.13;;;;;;;7.78;63.04;100181.16;4236425;28;21447;-67
2023/04/22 04:38:32;;;;;;;13.53;6.10;;;;;;;7.76;63.61;100173.22;4226194;28;20444;-67
2023/04/22 04:41:00;;;;;;;13.67;5.60;;;;;;;7.84;63.15;100186.00;4221608;28;20355;-69
2023/04/22 04:43:28;;;;;;;15.00;5.33;;;;;;;7.97;62.28;100182.25;4219583;28;20243;-65
2023/04/22 04:45:54;;;;;;;11.23;5.67;;;;;;;7.94;63.19;100191.41;4215506;28;25186;-69
2023/04/22 04:48:23;;;;;;;13.13;5.40;;;;;;;8.03;62.47;100181.69;4227656;28;20576;-69
2023/04/22 04:50:52;;;;;;;9.57;4.70;;;;;;;8.07;61.93;100189.38;4223546;28;21778;-67
2023/04/22 04:53:20;;;;;;;15.73;5.40;;;;;;;8.18;61.39;100179.44;4235066;28;20303;-67
2023/04/22 04:55:47;;;;;;;13.40;5.50;;;;;;;8.31;61.06;100188.13;4205580;28;20401;-67
2023/04/22 04:58:14;;;;;;;10.27;5.10;;;;;;;8.36;61.29;100193.09;4223369;28;22165;-69
2023/04/22 05:00:40;;;;;;;13.40;5.20;;;;;;;8.48;61.14;100183.94;4217813;28;20456;-69
2023/04/22 05:03:07;;;;;;;15.27;5.07;;;;;;;8.63;60.26;100183.53;4225668;28;21371;-67
2023/04/22 05:05:34;;;;;;;19.20;5.03;;;;;;;8.65;59.95;100179.69;4223723;28;20243;-69
2023/04/22 05:08:01;;;;;;;18.03;5.27;;;;;;;8.64;60.29;100186.06;4211312;28;20258;-69
2023/04/22 05:10:27;;;;;;;11.33;5.27;;;;;;;8.80;60.12;100188.19;4220145;28;20239;-70
2023/04/22 05:12:54;;;;;;;11.30;5.10;;;;;;;8.90;59.31;100190.03;4219153;28;20235;-69
2023/04/22 05:15:20;;;;;;;13.13;4.60;;;;;;;9.06;58.95;100197.59;4217277;28;20409;-69
2023/04/22 05:17:47;;;;;;;9.47;4.63;;;;;;;9.23;58.69;100186.03;4221894;28;20449;-68
2023/04/22 05:20:14;;;;;;;15.17;4.70;;;;;;;9.32;58.09;100187.03;4226772;28;20243;-69
2023/04/22 05:22:42;;;;;;;8.97;4.77;;;;;;;9.24;57.21;100192.31;4210916;28;25788;-69
2023/04/22 05:25:10;;;;;;;13.17;4.87;;;;;;;9.27;57.58;100190.16;4226186;28;20273;-69
2023/04/22 05:27:36;;;;;;;15.80;5.00;;;;;;;9.35;57.45;100184.03;4229657;28;20234;-69
2023/04/22 05:30:03;;;;;;;10.73;4.67;;;;;;;9.41;57.30;100183.44;4221248;28;22389;-70
2023/04/22 05:32:30;;;;;;;9.67;4.83;;;;;;;9.49;57.61;100182.72;4222960;28;20332;-67
2023/04/22 05:34:57;;;;;;;13.40;5.40;;;;;;;9.62;57.31;100190.50;4218313;28;20322;-66
2023/04/22 05:37:23;;;;;;;14.07;5.30;;;;;;;9.74;57.22;100186.59;4222253;28;20242;-70
2023/04/22 05:39:50;;;;;;;10.53;4.93;;;;;;;9.79;56.82;100186.16;4214765;28;20508;-68
2023/04/22 05:42:16;;;;;;;8.70;4.03;;;;;;;9.94;56.23;100189.22;4226627;28;21642;-70
2023/04/22 05:44:43;;;;;;;9.10;4.30;;;;;;;10.05;56.12;100178.22;4223961;28;20239;-70
2023/04/22 05:47:10;;;;;;;8.80;4.43;;;;;;;10.16;55.69;100185.28;4225776;28;20241;-69
2023/04/22 05:49:36;;;;;;;13.93;5.00;;;;;;;10.36;54.77;100179.72;4221391;28;21685;-69
2023/04/22 05:52:03;;;;;;;12.20;5.03;;;;;;;10.33;55.13;100185.47;4227118;28;21037;-68
2023/04/22 05:54:30;;;;;;;12.13;5.40;;;;;;;10.40;55.28;100182.00;4225717;28;20275;-66
2023/04/22 05:56:57;;;;;;;12.43;5.13;;;;;;;10.54;55.63;100193.31;4228569;28;20936;-69
2023/04/22 05:59:24;;;;;;;12.00;4.20;;;;;;;10.69;53.82;100182.81;4234512;28;20528;-70
2023/04/22 06:01:50;;;;;;;11.23;4.63;;;;;;;10.89;53.74;100180.81;4229954;28;25316;-68
2023/04/22 06:04:17;;;;;;;8.07;4.77;;;;;;;11.14;53.56;100189.16;4224880;28;20238;-70
2023/04/22 06:06:44;;;;;;;9.80;4.57;;;;;;;11.32;52.76;100181.81;4229038;28;20271;-67
2023/04/22 06:09:11;;;;;;;8.93;4.67;;;;;;;11.38;52.77;100189.31;4229400;28;20234;-67
2023/04/22 06:11:37;;;;;;;12.43;4.70;;;;;;;11.58;51.91;100176.38;4229577;28;20236;-68
2023/04/22 06:14:04;;;;;;;10.23;5.13;;;;;;;11.84;50.89;100180.06;4225687;28;20235;-68
2023/04/22 06:16:31;;;;;;;14.13;5.50;;;;;;;12.33;49.91;100183.03;4231536;28;20360;-67
2023/04/22 06:18:57;;;;;;;13.90;4.70;;;;;;;12.53;49.21;100174.59;4226364;28;20412;-69
2023/04/22 06:21:24;;;;;;;9.73;5.20;;;;;;;12.83;48.43;100183.97;4224959;28;20315;-69
2023/04/22 06:23:51;;;;;;;8.23;4.63;;;;;;;13.37;47.46;100179.84;4226882;28;20235;-65
2023/04/22 06:26:17;;;;;;;15.73;4.93;;;;;;;13.81;46.74;100173.16;4225255;28;20420;-67
2023/04/22 06:28:44;;;;;;;12.60;4.70;;;;;;;14.06;45.71;100175.81;4220005;28;20227;-68
2023/04/22 06:31:10;;;;;;;11.60;4.83;;;;;;;14.25;44.83;100172.63;4226848;28;20244;-69
2023/04/22 06:33:37;;;;;;;9.13;4.93;;;;;;;14.78;44.23;100185.63;4212459;28;23613;-65
2023/04/22 06:36:04;;;;;;;11.30;4.97;;;;;;;16.67;41.79;100172.84;4220426;28;20452;-71
2023/04/22 06:38:31;;;;;;;9.87;4.70;;;;;;;18.98;36.53;100177.44;4234741;28;20248;-72
2023/04/22 06:40:57;;;;;;;12.73;5.13;;;;;;;20.40;34.03;100172.56;4210119;28;20244;-68
2023/04/22 06:43:24;;;;;;;13.13;4.80;;;;;;;21.01;32.56;100165.63;4222420;28;20266;-67
2023/04/22 06:45:50;;;;;;;9.83;4.70;;;;;;;20.09;32.67;100168.66;4223184;28;23315;-70
2023/04/22 06:48:17;;;;;;;9.80;5.13;;;;;;;21.87;30.87;100176.13;4226116;28;20226;-71
2023/04/22 06:50:44;;;;;;;12.93;4.90;;;;;;;22.43;29.43;100173.38;4231331;28;20583;-70
2023/04/22 06:53:11;;;;;;;14.00;5.10;;;;;;;23.83;27.09;100169.47;4227591;28;20235;-70
2023/04/22 06:55:37;;;;;;;14.67;5.47;;;;;;;23.85;27.78;100165.38;4248549;28;20294;-77
2023/04/22 06:58:04;;;;;;;13.70;5.20;;;;;;;24.09;27.00;100170.03;4224099;28;20357;-71
2023/04/22 07:00:31;;;;;;;10.87;5.00;;;;;;;25.76;24.94;100165.28;4222782;28;21338;-73
2023/04/22 07:02:57;;;;;;;9.02;4.90;;;;;;;25.43;25.69;100167.00;4252993;28;20442;-71
2023/04/22 07:05:24;;;;;;;13.10;4.82;;;;;;;26.29;24.06;100170.44;4256674;28;25656;-74
2023/04/22 07:07:51;;;;;;;12.52;4.65;;;;;;;28.40;22.72;100174.13;4240171;28;20232;-68
2023/04/22 07:10:18;;;;;;;11.70;4.07;;;;;;;28.33;21.71;100170.72;4236792;28;20329;-75
2023/04/22 07:12:44;;;;;;;7.03;4.53;;;;;;;29.32;20.81;100173.47;4229567;28;20235;-70
2023/04/22 07:15:11;;;;;;;11.25;4.93;;;;;;;28.77;21.55;100171.16;4206863;28;21002;-75
2023/04/22 07:17:37;;;;;;;12.00;4.60;;;;;;;30.05;20.38;100171.41;4239141;28;22486;-74
2023/04/22 07:20:05;;;;;;;17.30;5.25;;;;;;;30.16;19.90;100173.00;4236616;28;20319;-72
2023/04/22 07:22:32;;;;;;;10.45;4.55;;;;;;;32.22;18.48;100184.56;4229057;28;22324;-71
2023/04/22 07:24:59;;;;;;;9.77;4.53;;;;;;;32.39;18.29;100175.69;4222324;28;20228;-71
2023/04/22 07:27:25;;;;;;;13.10;4.80;;;;;;;33.30;17.12;100175.72;4238046;28;20697;-73
2023/04/22 07:29:52;;;;;;;11.77;4.68;;;;;;;33.48;17.03;100176.84;4217972;28;20253;-73
2023/04/22 07:32:18;;;;;;;13.70;4.40;;;;;;;29.24;19.34;100179.56;4219386;28;20236;-74
2023/04/22 07:34:45;;;;;;;13.52;4.32;;;;;;;28.81;19.92;100165.88;4224659;28;20235;-73
2023/04/22 07:37:12;;;;;;;7.68;3.88;;;;;;;28.78;20.71;100158.91;4221349;28;21601;-69
2023/04/22 07:39:39;;;;;;;6.90;4.03;;;;;;;32.48;17.17;100170.25;4227389;28;21056;-73
2023/04/22 07:42:06;;;;;;;10.38;3.65;;;;;;;33.40;15.96;100163.53;4226711;28;21105;-71
2023/04/22 07:44:32;;;;;;;7.18;3.47;;;;;;;29.60;19.32;100162.00;4227337;28;20234;-72
2023/04/22 07:46:59;;;;;;;6.22;3.53;;;;;;;31.02;18.45;100159.97;4223996;28;20235;-72
2023/04/22 07:49:26;;;;;;;5.65;3.25;;;;;;;32.91;16.14;100168.53;4224146;28;20236;-70
2023/04/22 07:51:52;;;;;;;6.78;2.78;;;;;;;30.05;17.69;100163.03;4234721;28;20410;-72
2023/04/22 07:54:19;;;;;;;9.27;3.50;;;;;;;30.81;17.32;100155.38;4232980;28;20907;-72
2023/04/22 07:56:45;;;;;;;5.28;2.72;;;;;;;31.90;16.21;100165.63;4231153;28;25029;-73
2023/04/22 07:59:12;;;;;;;5.32;2.90;;;;;;;29.35;18.22;100160.91;4225409;28;20400;-72
2023/04/22 08:01:38;;;;;;;6.45;3.28;;;;;;;25.14;22.12;100156.84;4240878;28;20240;-72
2023/04/22 08:04:06;;;;;;;8.02;2.60;;;;;;;25.13;22.40;100159.84;4221478;28;20273;-73
2023/04/22 08:06:33;;;;;;;7.82;3.70;;;;;;;23.90;23.87;100168.22;4228556;28;20325;-70
2023/04/22 08:09:00;;;;;;;7.50;3.60;;;;;;;22.28;25.38;100159.94;4222006;28;21474;-72
2023/04/22 08:11:27;;;;;;;9.23;3.55;;;;;;;22.50;25.61;100162.25;4230079;28;24883;-70
2023/04/22 08:13:54;;;;;;;7.37;3.77;;;;;;;21.39;27.41;100161.13;4226026;28;20235;-70
2023/04/22 08:16:20;;;;;;;8.30;4.03;;;;;;;22.81;26.33;100163.91;4241043;28;20247;-70
2023/04/22 08:18:47;;;;;;;12.20;3.65;;;;;;;21.96;26.99;100163.75;4231283;28;20287;-74
2023/04/22 08:21:14;;;;;;;13.07;4.20;;;;;;;20.67;28.67;100162.25;4217929;28;20701;-69
2023/04/22 08:23:40;;;;;;;6.28;3.55;;;;;;;20.94;28.35;100162.09;4254756;28;20243;-69
2023/04/22 08:26:13;;;;;;;10.63;3.57;;;;;;;20.96;28.07;100161.91;4223954;28;20243;-71
2023/04/22 08:28:41;;;;;;;7.60;3.78;;;;;;;20.90;28.16;100158.94;4217466;28;21727;-72
2023/04/22 08:31:09;;;;;;;10.17;3.57;;;;;;;20.96;28.30;100162.72;4249123;28;20246;-71
2023/04/22 08:33:40;;;;;;;10.17;4.07;;;;;;;20.89;28.53;100154.50;4224913;28;20231;-70
2023/04/22 08:36:08;;;;;;;8.97;3.30;;;;;;;21.79;27.84;100157.97;4231029;28;20602;-75
2023/04/22 08:38:36;;;;;;;8.13;3.43;;;;;;;20.81;27.91;100153.94;4230441;28;22459;-72
2023/04/22 08:41:04;;;;;;;11.67;4.20;;;;;;;20.75;28.60;100155.66;4223279;28;20365;-67
2023/04/22 08:43:31;;;;;;;9.33;3.80;;;;;;;20.97;28.16;100160.81;4245219;28;20357;-68
2023/04/22 08:45:58;;;;;;;11.67;4.40;;;;;;;20.54;30.74;100152.19;4237060;28;20231;-67
2023/04/22 08:48:25;;;;;;;11.67;4.70;;;;;;;20.33;31.60;100158.84;4226353;28;21230;-66
2023/04/22 08:50:52;;;;;;;12.87;4.63;;;;;;;20.92;30.80;100155.13;4234729;28;20230;-67
2023/04/22 08:53:22;;;;;;;11.20;4.77;;;;;;;20.48;31.60;100153.06;4228508;28;20237;-65
2023/04/22 08:55:50;;;;;;;7.70;4.37;;;;;;;20.65;31.07;100147.03;4246332;28;20304;-70
2023/04/22 08:58:17;;;;;;;12.00;4.40;;;;;;;20.21;31.86;100155.09;4245230;28;20245;-66
2023/04/22 09:00:44;;;;;;;8.43;4.33;;;;;;;20.83;30.62;100149.91;4232721;28;20372;-68
2023/04/22 09:03:11;;;;;;;12.80;4.53;;;;;;;21.16;30.40;100153.47;4229311;28;20239;-66
2023/04/22 09:05:39;;;;;;;8.07;3.53;;;;;;;20.61;28.67;100146.66;4230189;28;20253;-68
2023/04/22 09:08:06;;;;;;;8.37;2.73;;;;;;;21.08;27.68;100146.34;4224518;28;21082;-66
2023/04/22 09:10:36;;;;;;;5.60;2.60;;;;;;;20.85;26.64;100146.91;4218890;28;20227;-68
2023/04/22 09:13:05;;;;;;;7.23;3.23;;;;;;;20.65;28.72;100145.13;4237139;28;20909;-65
2023/04/22 09:15:32;;;;;;;8.53;4.00;;;;;;;20.86;29.58;100138.47;4230299;28;23567;-64
2023/04/22 09:18:01;;;;;;;9.90;5.30;;;;;;;19.58;32.35;100148.28;4241076;28;20231;-67
2023/04/22 09:20:29;;;;;;;9.10;4.63;;;;;;;20.34;30.90;100143.19;4236801;28;22207;-65
2023/04/22 09:22:56;;;;;;;7.40;3.70;;;;;;;20.59;29.71;100135.00;4206593;28;22705;-66
2023/04/22 09:25:25;;;;;;;7.57;3.40;;;;;;;20.86;29.29;100137.59;4220504;28;20257;-68
2023/04/22 09:27:55;;;;;;;9.00;3.03;;;;;;;20.67;29.97;100126.50;4234457;28;20309;-66
2023/04/22 09:30:26;;;;;;;9.43;3.40;;;;;;;20.48;29.44;100133.81;4220186;28;20248;-67
2023/04/22 09:32:54;;;;;;;6.77;3.00;;;;;;;20.79;28.55;100134.91;4229856;28;20598;-74
2023/04/22 09:35:38;;;;;;;10.10;3.50;;;;;;;19.99;30.12;100127.91;4225840;28;20234;-73
2023/04/22 09:38:07;;;;;;;9.17;3.70;;;;;;;19.79;31.38;100126.03;4227083;28;21133;-71
2023/04/22 09:40:35;;;;;;;12.50;4.00;;;;;;;19.66;31.81;100125.25;4248314;28;20236;-75
2023/04/22 09:43:04;;;;;;;6.50;3.93;;;;;;;19.30;32.89;100132.91;4219074;28;20233;-71
2023/04/22 09:45:41;;;;;;;8.00;3.47;;;;;;;19.27;33.70;100125.09;4226977;28;20300;-68
2023/04/22 09:48:11;;;;;;;7.77;3.80;;;;;;;19.89;30.82;100114.66;4215902;28;20304;-68
2023/04/22 09:50:40;;;;;;;9.40;3.90;;;;;;;19.85;31.14;100118.03;4222382;28;20307;-69
2023/04/22 09:53:10;;;;;;;10.07;3.43;;;;;;;19.25;32.05;100116.25;4219067;28;20502;-69
2023/04/22 09:55:42;;;;;;;8.93;3.83;;;;;;;19.71;31.12;100104.31;4236206;28;22094;-68
2023/04/22 09:58:14;;;;;;;13.47;3.67;;;;;;;19.61;31.50;100102.00;4242719;28;20237;-67
2023/04/22 10:00:43;;;;;;;9.00;3.47;;;;;;;19.82;30.80;100097.31;4212499;28;20295;-65
2023/04/22 10:03:10;;;;;;;8.90;3.67;;;;;;;20.07;30.39;100100.19;4223722;28;23485;-70
2023/04/22 10:05:37;;;;;;;10.53;4.13;;;;;;;19.79;30.46;100092.25;4223599;28;20234;-70
2023/04/22 10:08:05;;;;;;;5.17;2.53;;;;;;;19.45;29.84;100106.06;4231471;28;25493;-70
2023/04/22 10:10:31;;;;;;;4.80;2.43;;;;;;;20.01;29.30;100098.34;4232765;28;20239;-72
2023/04/22 10:12:59;;;;;;;10.23;3.17;;;;;;;20.04;29.75;100097.03;4227377;28;21104;-74
2023/04/22 10:15:29;;;;;;;6.93;2.83;;;;;;;19.68;30.83;100095.66;4230195;28;20235;-74
2023/04/22 10:17:56;;;;;;;3.73;2.43;;;;;;;19.38;30.46;100107.13;4228810;28;20472;-73
2023/04/22 10:20:23;;;;;;;5.93;2.63;;;;;;;19.46;30.10;100088.53;4231371;28;20608;-69
2023/04/22 10:22:51;;;;;;;5.47;2.53;;;;;;;19.72;30.62;100091.44;4197711;28;20247;-66
2023/04/22 10:25:22;;;;;;;9.60;2.33;;;;;;;19.91;31.11;100078.72;4236110;28;20330;-65
2023/04/22 10:28:03;;;;;;;11.63;3.20;;;;;;;20.35;31.45;100079.75;4223652;28;20235;-65
2023/04/22 10:30:31;;;;;;;7.93;3.13;;;;;;;20.50;29.67;100087.69;4217114;28;20658;-64
2023/04/22 10:33:20;;;;;;;9.87;3.03;;;;;;;20.13;30.61;100087.47;4230155;28;20231;-63
2023/04/22 10:36:05;;;;;;;7.00;3.30;;;;;;;19.56;31.70;100085.34;4245819;28;20231;-68
2023/04/22 10:38:35;;;;;;;7.00;2.87;;;;;;;19.00;32.00;100097.69;4231410;28;20360;-69
2023/04/22 10:41:05;;;;;;;9.37;4.10;;;;;;;19.08;32.46;100094.72;4230886;28;22059;-67
2023/04/22 10:43:48;;;;;;;6.60;3.10;;;;;;;19.48;32.25;100089.19;4244020;28;22836;-68
2023/04/22 10:46:36;;;;;;;5.50;3.17;;;;;;;19.79;31.51;100079.34;4221274;28;20489;-74
2023/04/22 10:49:07;;;;;;;8.13;3.33;;;;;;;20.00;30.35;100082.91;4252484;28;20934;-71
2023/04/22 10:51:43;;;;;;;9.93;3.20;;;;;;;20.14;30.14;100078.16;4240739;28;26218;-71
2023/04/22 10:54:25;;;;;;;8.70;2.80;;;;;;;20.24;29.72;100077.72;4218636;28;23906;-67
2023/04/22 10:57:02;;;;;;;9.20;2.97;;;;;;;19.80;30.16;100070.03;4244147;28;21851;-70
2023/04/22 10:59:30;;;;;;;5.10;2.63;;;;;;;19.83;31.27;100071.50;4234896;28;20655;-69
2023/04/22 11:02:15;;;;;;;6.73;3.03;;;;;;;19.80;31.01;100066.47;4216138;28;22145;-69
2023/04/22 11:04:43;;;;;;;11.23;3.00;;;;;;;20.15;29.55;100059.78;4241974;28;20332;-71
2023/04/22 11:07:15;;;;;;;5.07;2.90;;;;;;;20.24;29.53;100063.97;4235864;28;21982;-65
2023/04/22 11:09:44;;;;;;;4.20;2.50;;;;;;;20.15;30.12;100073.53;4233098;28;20223;-67
2023/04/22 11:12:38;;;;;;;7.73;2.83;;;;;;;20.42;29.33;100071.47;4224236;28;20341;-71
2023/04/22 11:15:10;;;;;;;7.07;2.80;;;;;;;19.75;29.96;100069.88;4250309;28;20247;-68
2023/04/22 11:17:38;;;;;;;9.17;2.90;;;;;;;19.91;30.97;100062.22;4229790;28;21485;-67
2023/04/22 11:20:06;;;;;;;8.03;3.00;;;;;;;20.04;31.84;100047.59;4227775;28;20268;-68
2023/04/22 11:22:47;;;;;;;10.07;3.03;;;;;;;20.06;31.36;100049.06;4247621;28;22276;-71
2023/04/22 11:25:14;;;;;;;7.23;2.83;;;;;;;20.06;30.25;100059.19;4229130;28;20239;-66
2023/04/22 11:27:44;;;;;;;5.70;2.83;;;;;;;20.49;29.52;100052.16;4210370;28;20614;-68